sensor_id;sensor_type;location;lat;lon;timestamp;P1;durP1;ratioP1;P2;durP2;ratioP2
9102;SDS011;4587;51.434;6.788;2023-10-09T00:02:04;28.07;;;17.93;;
9102;SDS011;4587;51.434;6.788;2023-10-09T00:04:35;35.00;;;19.87;;
9102;SDS011;4587;51.434;6.788;2023-10-09T00:07:01;28.73;;;18.73;;
9102;SDS011;4587;51.434;6.788;2023-10-09T00:09:28;32.73;;;18.43;;
9102;SDS011;4587;51.434;6.788;2023-10-09T00:11:57;34.37;;;18.87;;
9102;SDS011;4587;51.434;6.788;2023-10-09T00:14:25;31.47;;;19.60;;
9102;SDS011;4587;51.434;6.788;2023-10-09T00:16:55;29.67;;;17.90;;
9102;SDS011;4587;51.434;6.788;2023-10-09T00:19:27;30.10;;;18.57;;
9102;SDS011;4587;51.434;6.788;2023-10-09T00:21:58;27.20;;;18.10;;
9102;SDS011;4587;51.434;6.788;2023-10-09T00:24:31;27.93;;;18.00;;
9102;SDS011;4587;51.434;6.788;2023-10-09T00:26:57;29.83;;;18.70;;
9102;SDS011;4587;51.434;6.788;2023-10-09T00:29:39;31.60;;;18.60;;
9102;SDS011;4587;51.434;6.788;2023-10-09T00:32:14;27.73;;;18.03;;
9102;SDS011;4587;51.434;6.788;2023-10-09T00:34:57;28.27;;;17.43;;
9102;SDS011;4587;51.434;6.788;2023-10-09T00:37:24;29.13;;;18.33;;
9102;SDS011;4587;51.434;6.788;2023-10-09T00:39:51;28.67;;;18.47;;
9102;SDS011;4587;51.434;6.788;2023-10-09T00:42:23;27.50;;;18.30;;
9102;SDS011;4587;51.434;6.788;2023-10-09T00:44:58;25.83;;;16.73;;
9102;SDS011;4587;51.434;6.788;2023-10-09T00:47:33;25.97;;;17.13;;
9102;SDS011;4587;51.434;6.788;2023-10-09T00:50:03;30.23;;;17.97;;
9102;SDS011;4587;51.434;6.788;2023-10-09T00:52:40;27.00;;;16.53;;
9102;SDS011;4587;51.434;6.788;2023-10-09T00:55:14;26.23;;;16.80;;
9102;SDS011;4587;51.434;6.788;2023-10-09T00:57:45;23.77;;;16.57;;
9102;SDS011;4587;51.434;6.788;2023-10-09T01:00:22;24.63;;;15.97;;
9102;SDS011;4587;51.434;6.788;2023-10-09T01:03:01;23.57;;;15.07;;
9102;SDS011;4587;51.434;6.788;2023-10-09T01:05:43;21.40;;;15.07;;
9102;SDS011;4587;51.434;6.788;2023-10-09T01:08:20;25.70;;;15.57;;
9102;SDS011;4587;51.434;6.788;2023-10-09T01:11:05;25.20;;;15.37;;
9102;SDS011;4587;51.434;6.788;2023-10-09T01:13:35;22.87;;;14.43;;
9102;SDS011;4587;51.434;6.788;2023-10-09T01:16:07;23.10;;;14.23;;
9102;SDS011;4587;51.434;6.788;2023-10-09T01:18:40;21.00;;;14.83;;
9102;SDS011;4587;51.434;6.788;2023-10-09T01:21:06;24.67;;;14.77;;
9102;SDS011;4587;51.434;6.788;2023-10-09T01:23:32;18.33;;;13.23;;
9102;SDS011;4587;51.434;6.788;2023-10-09T01:25:58;19.10;;;14.00;;
9102;SDS011;4587;51.434;6.788;2023-10-09T01:28:23;21.33;;;14.03;;
9102;SDS011;4587;51.434;6.788;2023-10-09T01:30:51;21.67;;;14.53;;
9102;SDS011;4587;51.434;6.788;2023-10-09T01:33:17;20.73;;;13.43;;
9102;SDS011;4587;51.434;6.788;2023-10-09T01:35:49;21.43;;;13.53;;
9102;SDS011;4587;51.434;6.788;2023-10-09T01:38:20;23.10;;;13.90;;
9102;SDS011;4587;51.434;6.788;2023-10-09T01:40:56;19.20;;;14.17;;
9102;SDS011;4587;51.434;6.788;2023-10-09T01:43:28;21.93;;;13.70;;
9102;SDS011;4587;51.434;6.788;2023-10-09T01:45:54;17.77;;;12.87;;
9102;SDS011;4587;51.434;6.788;2023-10-09T01:48:20;20.87;;;13.13;;
9102;SDS011;4587;51.434;6.788;2023-10-09T01:50:49;21.63;;;13.87;;
9102;SDS011;4587;51.434;6.788;2023-10-09T01:53:14;24.43;;;14.00;;
9102;SDS011;4587;51.434;6.788;2023-10-09T01:55:43;21.30;;;13.33;;
9102;SDS011;4587;51.434;6.788;2023-10-09T01:58:10;20.40;;;13.80;;
9102;SDS011;4587;51.434;6.788;2023-10-09T02:00:56;20.70;;;14.10;;
9102;SDS011;4587;51.434;6.788;2023-10-09T02:03:26;18.80;;;13.63;;
9102;SDS011;4587;51.434;6.788;2023-10-09T02:05:54;20.40;;;13.93;;
9102;SDS011;4587;51.434;6.788;2023-10-09T02:08:28;22.67;;;13.90;;
9102;SDS011;4587;51.434;6.788;2023-10-09T02:10:55;19.40;;;12.97;;
9102;SDS011;4587;51.434;6.788;2023-10-09T02:13:21;20.90;;;13.93;;
9102;SDS011;4587;51.434;6.788;2023-10-09T02:16:00;15.67;;;12.93;;
9102;SDS011;4587;51.434;6.788;2023-10-09T02:18:53;19.70;;;13.60;;
9102;SDS011;4587;51.434;6.788;2023-10-09T02:21:39;21.83;;;14.00;;
9102;SDS011;4587;51.434;6.788;2023-10-09T02:24:05;18.80;;;13.63;;
9102;SDS011;4587;51.434;6.788;2023-10-09T02:26:51;16.37;;;13.10;;
9102;SDS011;4587;51.434;6.788;2023-10-09T02:29:16;19.07;;;13.67;;
9102;SDS011;4587;51.434;6.788;2023-10-09T02:31:42;22.00;;;14.00;;
9102;SDS011;4587;51.434;6.788;2023-10-09T02:34:16;22.93;;;13.90;;
9102;SDS011;4587;51.434;6.788;2023-10-09T02:36:46;24.63;;;14.47;;
9102;SDS011;4587;51.434;6.788;2023-10-09T02:39:22;20.03;;;14.27;;
9102;SDS011;4587;51.434;6.788;2023-10-09T02:41:52;17.57;;;12.83;;
9102;SDS011;4587;51.434;6.788;2023-10-09T02:44:25;19.20;;;12.93;;
9102;SDS011;4587;51.434;6.788;2023-10-09T02:46:51;18.20;;;13.70;;
9102;SDS011;4587;51.434;6.788;2023-10-09T02:49:17;18.47;;;13.07;;
9102;SDS011;4587;51.434;6.788;2023-10-09T02:51:43;16.93;;;12.67;;
9102;SDS011;4587;51.434;6.788;2023-10-09T02:54:10;19.80;;;13.30;;
9102;SDS011;4587;51.434;6.788;2023-10-09T02:56:49;20.00;;;12.70;;
9102;SDS011;4587;51.434;6.788;2023-10-09T02:59:31;15.60;;;12.13;;
9102;SDS011;4587;51.434;6.788;2023-10-09T03:01:56;19.33;;;12.63;;
9102;SDS011;4587;51.434;6.788;2023-10-09T03:04:24;19.47;;;13.37;;
9102;SDS011;4587;51.434;6.788;2023-10-09T03:06:56;19.37;;;12.83;;
9102;SDS011;4587;51.434;6.788;2023-10-09T03:09:22;16.73;;;12.00;;
9102;SDS011;4587;51.434;6.788;2023-10-09T03:11:56;21.20;;;12.50;;
9102;SDS011;4587;51.434;6.788;2023-10-09T03:14:31;18.97;;;12.80;;
9102;SDS011;4587;51.434;6.788;2023-10-09T03:17:00;15.83;;;12.30;;
9102;SDS011;4587;51.434;6.788;2023-10-09T03:19:26;21.47;;;13.03;;
9102;SDS011;4587;51.434;6.788;2023-10-09T03:21:53;19.37;;;13.20;;
9102;SDS011;4587;51.434;6.788;2023-10-09T03:24:22;17.50;;;13.10;;
9102;SDS011;4587;51.434;6.788;2023-10-09T03:26:55;19.20;;;12.77;;
9102;SDS011;4587;51.434;6.788;2023-10-09T03:29:22;18.23;;;12.50;;
9102;SDS011;4587;51.434;6.788;2023-10-09T03:31:48;16.33;;;12.53;;
9102;SDS011;4587;51.434;6.788;2023-10-09T03:34:15;17.27;;;12.30;;
9102;SDS011;4587;51.434;6.788;2023-10-09T03:36:41;17.23;;;11.73;;
9102;SDS011;4587;51.434;6.788;2023-10-09T03:39:08;19.93;;;12.00;;
9102;SDS011;4587;51.434;6.788;2023-10-09T03:41:50;16.70;;;11.47;;
9102;SDS011;4587;51.434;6.788;2023-10-09T03:44:16;15.03;;;10.83;;
9102;SDS011;4587;51.434;6.788;2023-10-09T03:46:44;16.67;;;11.97;;
9102;SDS011;4587;51.434;6.788;2023-10-09T03:49:16;15.17;;;11.20;;
9102;SDS011;4587;51.434;6.788;2023-10-09T03:51:48;19.10;;;12.20;;
9102;SDS011;4587;51.434;6.788;2023-10-09T03:54:14;13.87;;;11.13;;
9102;SDS011;4587;51.434;6.788;2023-10-09T03:56:41;17.73;;;12.20;;
9102;SDS011;4587;51.434;6.788;2023-10-09T03:59:06;17.07;;;11.53;;
9102;SDS011;4587;51.434;6.788;2023-10-09T04:01:35;17.07;;;12.03;;
9102;SDS011;4587;51.434;6.788;2023-10-09T04:04:04;14.37;;;10.00;;
9102;SDS011;4587;51.434;6.788;2023-10-09T04:06:32;15.57;;;11.17;;
9102;SDS011;4587;51.434;6.788;2023-10-09T04:08:59;15.03;;;11.33;;
9102;SDS011;4587;51.434;6.788;2023-10-09T04:11:46;14.30;;;11.50;;
9102;SDS011;4587;51.434;6.788;2023-10-09T04:14:11;16.43;;;11.00;;
9102;SDS011;4587;51.434;6.788;2023-10-09T04:16:49;16.87;;;11.50;;
9102;SDS011;4587;51.434;6.788;2023-10-09T04:19:21;15.67;;;11.23;;
9102;SDS011;4587;51.434;6.788;2023-10-09T04:21:49;14.87;;;11.03;;
9102;SDS011;4587;51.434;6.788;2023-10-09T04:24:15;18.30;;;11.57;;
9102;SDS011;4587;51.434;6.788;2023-10-09T04:26:41;16.10;;;11.10;;
9102;SDS011;4587;51.434;6.788;2023-10-09T04:29:11;16.60;;;11.30;;
9102;SDS011;4587;51.434;6.788;2023-10-09T04:31:55;15.87;;;11.50;;
9102;SDS011;4587;51.434;6.788;2023-10-09T04:34:24;18.60;;;10.83;;
9102;SDS011;4587;51.434;6.788;2023-10-09T04:36:54;16.70;;;10.87;;
9102;SDS011;4587;51.434;6.788;2023-10-09T04:39:25;16.93;;;11.50;;
9102;SDS011;4587;51.434;6.788;2023-10-09T04:41:54;16.60;;;11.43;;
9102;SDS011;4587;51.434;6.788;2023-10-09T04:44:39;16.93;;;11.90;;
9102;SDS011;4587;51.434;6.788;2023-10-09T04:47:06;15.73;;;11.00;;
9102;SDS011;4587;51.434;6.788;2023-10-09T04:49:36;15.67;;;11.80;;
9102;SDS011;4587;51.434;6.788;2023-10-09T04:52:18;15.90;;;11.97;;
9102;SDS011;4587;51.434;6.788;2023-10-09T04:54:50;15.63;;;11.67;;
9102;SDS011;4587;51.434;6.788;2023-10-09T04:57:37;15.93;;;10.77;;
9102;SDS011;4587;51.434;6.788;2023-10-09T05:00:13;17.17;;;11.50;;
9102;SDS011;4587;51.434;6.788;2023-10-09T05:02:48;15.53;;;11.03;;
9102;SDS011;4587;51.434;6.788;2023-10-09T05:05:20;17.30;;;11.57;;
9102;SDS011;4587;51.434;6.788;2023-10-09T05:08:04;17.27;;;11.30;;
9102;SDS011;4587;51.434;6.788;2023-10-09T05:11:03;15.97;;;11.57;;
9102;SDS011;4587;51.434;6.788;2023-10-09T05:13:29;16.17;;;11.80;;
9102;SDS011;4587;51.434;6.788;2023-10-09T05:16:04;16.07;;;11.10;;
9102;SDS011;4587;51.434;6.788;2023-10-09T05:18:29;17.13;;;11.30;;
9102;SDS011;4587;51.434;6.788;2023-10-09T05:21:02;13.80;;;10.60;;
9102;SDS011;4587;51.434;6.788;2023-10-09T05:23:37;15.13;;;11.20;;
9102;SDS011;4587;51.434;6.788;2023-10-09T05:26:09;18.43;;;11.83;;
9102;SDS011;4587;51.434;6.788;2023-10-09T05:29:14;14.07;;;10.83;;
9102;SDS011;4587;51.434;6.788;2023-10-09T05:32:03;17.60;;;11.80;;
9102;SDS011;4587;51.434;6.788;2023-10-09T05:34:43;13.40;;;11.60;;
9102;SDS011;4587;51.434;6.788;2023-10-09T05:37:25;16.17;;;12.03;;
9102;SDS011;4587;51.434;6.788;2023-10-09T05:39:57;17.47;;;12.10;;
9102;SDS011;4587;51.434;6.788;2023-10-09T05:42:28;14.60;;;12.40;;
9102;SDS011;4587;51.434;6.788;2023-10-09T05:47:47;16.00;;;12.20;;
9102;SDS011;4587;51.434;6.788;2023-10-09T05:50:26;16.47;;;12.47;;
9102;SDS011;4587;51.434;6.788;2023-10-09T05:52:52;15.27;;;11.30;;
9102;SDS011;4587;51.434;6.788;2023-10-09T05:55:20;16.90;;;12.10;;
9102;SDS011;4587;51.434;6.788;2023-10-09T05:58:04;15.63;;;10.80;;
9102;SDS011;4587;51.434;6.788;2023-10-09T06:00:42;13.37;;;10.20;;
9102;SDS011;4587;51.434;6.788;2023-10-09T06:03:26;17.13;;;11.80;;
9102;SDS011;4587;51.434;6.788;2023-10-09T06:06:10;12.10;;;10.30;;
9102;SDS011;4587;51.434;6.788;2023-10-09T06:08:43;16.80;;;11.03;;
9102;SDS011;4587;51.434;6.788;2023-10-09T06:11:12;14.30;;;10.83;;
9102;SDS011;4587;51.434;6.788;2023-10-09T06:14:01;14.90;;;10.37;;
9102;SDS011;4587;51.434;6.788;2023-10-09T06:16:40;15.20;;;11.13;;
9102;SDS011;4587;51.434;6.788;2023-10-09T06:19:07;18.80;;;11.23;;
9102;SDS011;4587;51.434;6.788;2023-10-09T06:21:40;14.97;;;10.83;;
9102;SDS011;4587;51.434;6.788;2023-10-09T06:24:07;16.37;;;11.23;;
9102;SDS011;4587;51.434;6.788;2023-10-09T06:26:43;13.17;;;10.00;;
9102;SDS011;4587;51.434;6.788;2023-10-09T06:29:25;16.37;;;11.07;;
9102;SDS011;4587;51.434;6.788;2023-10-09T06:32:06;19.13;;;11.33;;
9102;SDS011;4587;51.434;6.788;2023-10-09T06:34:52;15.03;;;11.13;;
9102;SDS011;4587;51.434;6.788;2023-10-09T06:37:40;16.73;;;10.63;;
9102;SDS011;4587;51.434;6.788;2023-10-09T06:40:39;19.13;;;11.07;;
9102;SDS011;4587;51.434;6.788;2023-10-09T06:43:20;17.67;;;10.90;;
9102;SDS011;4587;51.434;6.788;2023-10-09T06:45:46;15.57;;;11.00;;
9102;SDS011;4587;51.434;6.788;2023-10-09T06:48:44;15.90;;;10.57;;
9102;SDS011;4587;51.434;6.788;2023-10-09T06:51:11;16.73;;;10.53;;
9102;SDS011;4587;51.434;6.788;2023-10-09T06:54:01;15.03;;;11.00;;
9102;SDS011;4587;51.434;6.788;2023-10-09T06:56:32;17.30;;;11.30;;
9102;SDS011;4587;51.434;6.788;2023-10-09T06:59:06;14.00;;;10.80;;
9102;SDS011;4587;51.434;6.788;2023-10-09T07:01:46;16.20;;;11.47;;
9102;SDS011;4587;51.434;6.788;2023-10-09T07:04:33;14.90;;;11.13;;
9102;SDS011;4587;51.434;6.788;2023-10-09T07:06:59;14.60;;;11.50;;
9102;SDS011;4587;51.434;6.788;2023-10-09T07:09:32;16.37;;;11.70;;
9102;SDS011;4587;51.434;6.788;2023-10-09T07:12:07;14.13;;;10.97;;
9102;SDS011;4587;51.434;6.788;2023-10-09T07:14:51;16.47;;;11.73;;
9102;SDS011;4587;51.434;6.788;2023-10-09T07:17:32;16.70;;;12.03;;
9102;SDS011;4587;51.434;6.788;2023-10-09T07:20:17;17.90;;;11.83;;
9102;SDS011;4587;51.434;6.788;2023-10-09T07:23:02;17.60;;;11.90;;
9102;SDS011;4587;51.434;6.788;2023-10-09T07:25:41;20.47;;;12.83;;
9102;SDS011;4587;51.434;6.788;2023-10-09T07:28:08;15.73;;;11.50;;
9102;SDS011;4587;51.434;6.788;2023-10-09T07:30:46;16.77;;;11.77;;
9102;SDS011;4587;51.434;6.788;2023-10-09T07:33:12;16.77;;;11.90;;
9102;SDS011;4587;51.434;6.788;2023-10-09T07:35:38;17.67;;;12.03;;
9102;SDS011;4587;51.434;6.788;2023-10-09T07:38:11;21.23;;;12.40;;
9102;SDS011;4587;51.434;6.788;2023-10-09T07:40:49;18.07;;;11.83;;
9102;SDS011;4587;51.434;6.788;2023-10-09T07:43:32;16.67;;;11.77;;
9102;SDS011;4587;51.434;6.788;2023-10-09T07:46:07;15.57;;;11.63;;
9102;SDS011;4587;51.434;6.788;2023-10-09T07:48:56;17.13;;;11.80;;
9102;SDS011;4587;51.434;6.788;2023-10-09T07:51:23;17.13;;;12.20;;
9102;SDS011;4587;51.434;6.788;2023-10-09T07:53:55;17.13;;;12.30;;
9102;SDS011;4587;51.434;6.788;2023-10-09T07:56:25;15.63;;;11.83;;
9102;SDS011;4587;51.434;6.788;2023-10-09T07:58:55;15.53;;;11.27;;
9102;SDS011;4587;51.434;6.788;2023-10-09T08:01:25;15.23;;;11.90;;
9102;SDS011;4587;51.434;6.788;2023-10-09T08:04:00;14.53;;;12.03;;
9102;SDS011;4587;51.434;6.788;2023-10-09T08:06:52;17.97;;;11.77;;
9102;SDS011;4587;51.434;6.788;2023-10-09T08:09:18;19.70;;;11.73;;
9102;SDS011;4587;51.434;6.788;2023-10-09T08:11:53;19.87;;;12.87;;
9102;SDS011;4587;51.434;6.788;2023-10-09T08:14:37;17.40;;;11.80;;
9102;SDS011;4587;51.434;6.788;2023-10-09T08:17:05;23.37;;;12.47;;
9102;SDS011;4587;51.434;6.788;2023-10-09T08:19:46;18.60;;;11.93;;
9102;SDS011;4587;51.434;6.788;2023-10-09T08:22:21;18.00;;;12.07;;
9102;SDS011;4587;51.434;6.788;2023-10-09T08:24:48;16.90;;;11.80;;
9102;SDS011;4587;51.434;6.788;2023-10-09T08:30:01;15.37;;;12.20;;
9102;SDS011;4587;51.434;6.788;2023-10-09T08:32:47;18.33;;;12.17;;
9102;SDS011;4587;51.434;6.788;2023-10-09T08:35:30;15.87;;;12.20;;
9102;SDS011;4587;51.434;6.788;2023-10-09T08:38:16;15.93;;;11.60;;
9102;SDS011;4587;51.434;6.788;2023-10-09T08:40:48;18.40;;;11.60;;
9102;SDS011;4587;51.434;6.788;2023-10-09T08:43:16;16.87;;;11.87;;
9102;SDS011;4587;51.434;6.788;2023-10-09T08:45:45;15.67;;;11.70;;
9102;SDS011;4587;51.434;6.788;2023-10-09T08:48:25;16.07;;;12.20;;
9102;SDS011;4587;51.434;6.788;2023-10-09T08:50:53;17.13;;;11.97;;
9102;SDS011;4587;51.434;6.788;2023-10-09T08:53:22;16.57;;;11.80;;
9102;SDS011;4587;51.434;6.788;2023-10-09T08:55:52;19.40;;;12.20;;
9102;SDS011;4587;51.434;6.788;2023-10-09T08:58:18;18.00;;;12.70;;
9102;SDS011;4587;51.434;6.788;2023-10-09T09:00:56;18.33;;;11.37;;
9102;SDS011;4587;51.434;6.788;2023-10-09T09:03:23;15.90;;;12.43;;
9102;SDS011;4587;51.434;6.788;2023-10-09T09:06:00;16.53;;;12.23;;
9102;SDS011;4587;51.434;6.788;2023-10-09T09:08:28;18.03;;;12.53;;
9102;SDS011;4587;51.434;6.788;2023-10-09T09:13:43;16.57;;;12.23;;
9102;SDS011;4587;51.434;6.788;2023-10-09T09:16:21;18.50;;;12.40;;
9102;SDS011;4587;51.434;6.788;2023-10-09T09:21:33;19.03;;;12.23;;
9102;SDS011;4587;51.434;6.788;2023-10-09T09:24:03;14.87;;;11.07;;
9102;SDS011;4587;51.434;6.788;2023-10-09T09:26:52;16.07;;;11.27;;
9102;SDS011;4587;51.434;6.788;2023-10-09T09:29:38;16.40;;;11.30;;
9102;SDS011;4587;51.434;6.788;2023-10-09T09:34:44;14.20;;;11.57;;
9102;SDS011;4587;51.434;6.788;2023-10-09T09:37:13;16.97;;;12.37;;
9102;SDS011;4587;51.434;6.788;2023-10-09T09:39:44;17.00;;;12.23;;
9102;SDS011;4587;51.434;6.788;2023-10-09T09:42:17;15.83;;;12.10;;
9102;SDS011;4587;51.434;6.788;2023-10-09T09:44:49;17.80;;;11.90;;
9102;SDS011;4587;51.434;6.788;2023-10-09T09:47:16;17.67;;;11.03;;
9102;SDS011;4587;51.434;6.788;2023-10-09T09:50:03;15.77;;;10.93;;
9102;SDS011;4587;51.434;6.788;2023-10-09T09:52:38;15.80;;;10.90;;
9102;SDS011;4587;51.434;6.788;2023-10-09T09:55:04;18.17;;;10.90;;
9102;SDS011;4587;51.434;6.788;2023-10-09T09:57:44;16.87;;;10.87;;
9102;SDS011;4587;51.434;6.788;2023-10-09T10:00:10;14.67;;;10.53;;
9102;SDS011;4587;51.434;6.788;2023-10-09T10:02:54;16.30;;;10.83;;
9102;SDS011;4587;51.434;6.788;2023-10-09T10:05:24;15.67;;;10.60;;
9102;SDS011;4587;51.434;6.788;2023-10-09T10:07:56;14.97;;;10.33;;
9102;SDS011;4587;51.434;6.788;2023-10-09T10:10:41;15.23;;;11.03;;
9102;SDS011;4587;51.434;6.788;2023-10-09T10:13:15;15.97;;;10.07;;
9102;SDS011;4587;51.434;6.788;2023-10-09T10:18:30;16.67;;;9.93;;
9102;SDS011;4587;51.434;6.788;2023-10-09T10:21:12;14.43;;;9.97;;
9102;SDS011;4587;51.434;6.788;2023-10-09T10:24:01;16.43;;;9.80;;
9102;SDS011;4587;51.434;6.788;2023-10-09T10:26:31;13.90;;;10.87;;
9102;SDS011;4587;51.434;6.788;2023-10-09T10:29:18;18.23;;;10.70;;
9102;SDS011;4587;51.434;6.788;2023-10-09T10:31:57;13.87;;;10.70;;
9102;SDS011;4587;51.434;6.788;2023-10-09T10:34:25;14.87;;;10.63;;
9102;SDS011;4587;51.434;6.788;2023-10-09T10:36:52;13.10;;;10.40;;
9102;SDS011;4587;51.434;6.788;2023-10-09T10:39:25;14.43;;;10.67;;
9102;SDS011;4587;51.434;6.788;2023-10-09T10:42:08;15.87;;;10.70;;
9102;SDS011;4587;51.434;6.788;2023-10-09T10:44:40;12.20;;;9.67;;
9102;SDS011;4587;51.434;6.788;2023-10-09T10:47:07;16.10;;;11.03;;
9102;SDS011;4587;51.434;6.788;2023-10-09T10:49:59;15.43;;;11.67;;
9102;SDS011;4587;51.434;6.788;2023-10-09T10:56:00;16.83;;;11.47;;
9102;SDS011;4587;51.434;6.788;2023-10-09T10:58:39;18.73;;;11.20;;
9102;SDS011;4587;51.434;6.788;2023-10-09T11:01:20;17.33;;;11.00;;
9102;SDS011;4587;51.434;6.788;2023-10-09T11:03:50;12.07;;;10.30;;
9102;SDS011;4587;51.434;6.788;2023-10-09T11:06:25;13.00;;;9.73;;
9102;SDS011;4587;51.434;6.788;2023-10-09T11:09:04;21.70;;;11.37;;
9102;SDS011;4587;51.434;6.788;2023-10-09T11:11:55;13.20;;;10.93;;
9102;SDS011;4587;51.434;6.788;2023-10-09T11:14:45;15.83;;;10.73;;
9102;SDS011;4587;51.434;6.788;2023-10-09T11:17:15;16.00;;;10.73;;
9102;SDS011;4587;51.434;6.788;2023-10-09T11:19:50;14.83;;;11.00;;
9102;SDS011;4587;51.434;6.788;2023-10-09T11:22:17;15.13;;;10.80;;
9102;SDS011;4587;51.434;6.788;2023-10-09T11:24:53;14.43;;;10.93;;
9102;SDS011;4587;51.434;6.788;2023-10-09T11:27:37;16.87;;;10.70;;
9102;SDS011;4587;51.434;6.788;2023-10-09T11:30:15;14.67;;;10.47;;
9102;SDS011;4587;51.434;6.788;2023-10-09T11:32:54;17.97;;;10.77;;
9102;SDS011;4587;51.434;6.788;2023-10-09T11:35:29;17.73;;;11.50;;
9102;SDS011;4587;51.434;6.788;2023-10-09T11:37:59;16.33;;;10.33;;
9102;SDS011;4587;51.434;6.788;2023-10-09T11:40:32;17.40;;;10.57;;
9102;SDS011;4587;51.434;6.788;2023-10-09T11:43:19;17.83;;;11.40;;
9102;SDS011;4587;51.434;6.788;2023-10-09T11:46:09;15.97;;;10.93;;
9102;SDS011;4587;51.434;6.788;2023-10-09T11:49:29;17.50;;;11.53;;
9102;SDS011;4587;51.434;6.788;2023-10-09T11:52:04;19.60;;;12.33;;
9102;SDS011;4587;51.434;6.788;2023-10-09T11:54:33;15.10;;;11.07;;
9102;SDS011;4587;51.434;6.788;2023-10-09T11:57:00;15.07;;;11.50;;
9102;SDS011;4587;51.434;6.788;2023-10-09T11:59:26;17.17;;;12.40;;
9102;SDS011;4587;51.434;6.788;2023-10-09T12:01:52;13.83;;;11.13;;
9102;SDS011;4587;51.434;6.788;2023-10-09T12:04:19;14.07;;;11.67;;
9102;SDS011;4587;51.434;6.788;2023-10-09T12:06:45;18.27;;;12.70;;
9102;SDS011;4587;51.434;6.788;2023-10-09T12:09:11;15.97;;;12.60;;
9102;SDS011;4587;51.434;6.788;2023-10-09T12:11:49;20.63;;;12.17;;
9102;SDS011;4587;51.434;6.788;2023-10-09T12:14:17;17.40;;;12.17;;
9102;SDS011;4587;51.434;6.788;2023-10-09T12:16:48;17.27;;;12.37;;
9102;SDS011;4587;51.434;6.788;2023-10-09T12:19:14;14.80;;;12.33;;
9102;SDS011;4587;51.434;6.788;2023-10-09T12:21:40;17.10;;;12.50;;
9102;SDS011;4587;51.434;6.788;2023-10-09T12:24:08;17.50;;;12.77;;
9102;SDS011;4587;51.434;6.788;2023-10-09T12:26:37;18.80;;;12.63;;
9102;SDS011;4587;51.434;6.788;2023-10-09T12:29:04;16.60;;;12.40;;
9102;SDS011;4587;51.434;6.788;2023-10-09T12:31:36;15.33;;;12.27;;
9102;SDS011;4587;51.434;6.788;2023-10-09T12:34:02;17.90;;;11.80;;
9102;SDS011;4587;51.434;6.788;2023-10-09T12:36:28;19.17;;;11.40;;
9102;SDS011;4587;51.434;6.788;2023-10-09T12:38:54;17.87;;;12.20;;
9102;SDS011;4587;51.434;6.788;2023-10-09T12:41:23;20.03;;;12.70;;
9102;SDS011;4587;51.434;6.788;2023-10-09T12:43:58;16.57;;;12.87;;
9102;SDS011;4587;51.434;6.788;2023-10-09T12:46:24;17.60;;;12.73;;
9102;SDS011;4587;51.434;6.788;2023-10-09T12:48:50;16.37;;;12.80;;
9102;SDS011;4587;51.434;6.788;2023-10-09T12:51:19;17.73;;;13.00;;
9102;SDS011;4587;51.434;6.788;2023-10-09T12:53:46;18.13;;;13.87;;
9102;SDS011;4587;51.434;6.788;2023-10-09T12:56:21;18.37;;;12.80;;
9102;SDS011;4587;51.434;6.788;2023-10-09T12:58:58;18.67;;;12.73;;
9102;SDS011;4587;51.434;6.788;2023-10-09T13:01:26;16.23;;;13.00;;
9102;SDS011;4587;51.434;6.788;2023-10-09T13:03:56;18.57;;;12.80;;
9102;SDS011;4587;51.434;6.788;2023-10-09T13:06:25;19.47;;;13.67;;
9102;SDS011;4587;51.434;6.788;2023-10-09T13:08:52;21.93;;;13.57;;
9102;SDS011;4587;51.434;6.788;2023-10-09T13:11:21;16.37;;;12.97;;
9102;SDS011;4587;51.434;6.788;2023-10-09T13:13:46;19.10;;;11.97;;
9102;SDS011;4587;51.434;6.788;2023-10-09T13:16:19;22.27;;;13.23;;
9102;SDS011;4587;51.434;6.788;2023-10-09T13:18:52;16.77;;;13.00;;
9102;SDS011;4587;51.434;6.788;2023-10-09T13:21:18;19.23;;;13.43;;
9102;SDS011;4587;51.434;6.788;2023-10-09T13:23:48;17.73;;;13.23;;
9102;SDS011;4587;51.434;6.788;2023-10-09T13:26:19;22.20;;;14.47;;
9102;SDS011;4587;51.434;6.788;2023-10-09T13:29:00;18.80;;;13.67;;
9102;SDS011;4587;51.434;6.788;2023-10-09T13:31:28;19.13;;;13.90;;
9102;SDS011;4587;51.434;6.788;2023-10-09T13:33:56;18.77;;;14.00;;
9102;SDS011;4587;51.434;6.788;2023-10-09T13:36:24;19.30;;;13.63;;
9102;SDS011;4587;51.434;6.788;2023-10-09T13:38:57;16.57;;;13.47;;
9102;SDS011;4587;51.434;6.788;2023-10-09T13:41:26;23.37;;;14.50;;
9102;SDS011;4587;51.434;6.788;2023-10-09T13:43:55;20.50;;;14.80;;
9102;SDS011;4587;51.434;6.788;2023-10-09T13:46:22;21.80;;;14.53;;
9102;SDS011;4587;51.434;6.788;2023-10-09T13:48:49;18.27;;;13.60;;
9102;SDS011;4587;51.434;6.788;2023-10-09T13:51:15;18.17;;;13.50;;
9102;SDS011;4587;51.434;6.788;2023-10-09T13:53:44;19.20;;;13.53;;
9102;SDS011;4587;51.434;6.788;2023-10-09T13:56:11;18.30;;;13.67;;
9102;SDS011;4587;51.434;6.788;2023-10-09T13:58:39;17.53;;;12.80;;
9102;SDS011;4587;51.434;6.788;2023-10-09T14:01:08;21.20;;;14.63;;
9102;SDS011;4587;51.434;6.788;2023-10-09T14:03:34;17.67;;;14.17;;
9102;SDS011;4587;51.434;6.788;2023-10-09T14:06:00;24.80;;;15.23;;
9102;SDS011;4587;51.434;6.788;2023-10-09T14:08:35;18.40;;;15.23;;
9102;SDS011;4587;51.434;6.788;2023-10-09T14:11:07;19.57;;;15.03;;
9102;SDS011;4587;51.434;6.788;2023-10-09T14:13:38;20.80;;;14.70;;
9102;SDS011;4587;51.434;6.788;2023-10-09T14:16:05;20.33;;;14.73;;
9102;SDS011;4587;51.434;6.788;2023-10-09T14:18:31;17.80;;;14.83;;
9102;SDS011;4587;51.434;6.788;2023-10-09T14:21:01;18.73;;;14.70;;
9102;SDS011;4587;51.434;6.788;2023-10-09T14:23:29;25.27;;;15.57;;
9102;SDS011;4587;51.434;6.788;2023-10-09T14:25:59;17.97;;;14.43;;
9102;SDS011;4587;51.434;6.788;2023-10-09T14:28:26;20.27;;;14.97;;
9102;SDS011;4587;51.434;6.788;2023-10-09T14:30:54;21.60;;;14.50;;
9102;SDS011;4587;51.434;6.788;2023-10-09T14:33:24;20.23;;;14.97;;
9102;SDS011;4587;51.434;6.788;2023-10-09T14:35:52;22.80;;;15.77;;
9102;SDS011;4587;51.434;6.788;2023-10-09T14:38:20;21.10;;;16.20;;
9102;SDS011;4587;51.434;6.788;2023-10-09T14:40:52;17.43;;;14.30;;
9102;SDS011;4587;51.434;6.788;2023-10-09T14:43:22;20.20;;;15.50;;
9102;SDS011;4587;51.434;6.788;2023-10-09T14:45:53;20.53;;;15.10;;
9102;SDS011;4587;51.434;6.788;2023-10-09T14:48:19;18.50;;;14.73;;
9102;SDS011;4587;51.434;6.788;2023-10-09T14:50:51;23.27;;;15.83;;
9102;SDS011;4587;51.434;6.788;2023-10-09T14:53:20;19.70;;;15.80;;
9102;SDS011;4587;51.434;6.788;2023-10-09T14:55:47;19.70;;;14.53;;
9102;SDS011;4587;51.434;6.788;2023-10-09T14:58:19;20.57;;;14.90;;
9102;SDS011;4587;51.434;6.788;2023-10-09T15:00:44;22.33;;;16.60;;
9102;SDS011;4587;51.434;6.788;2023-10-09T15:03:13;18.03;;;14.67;;
9102;SDS011;4587;51.434;6.788;2023-10-09T15:05:42;21.63;;;14.87;;
9102;SDS011;4587;51.434;6.788;2023-10-09T15:08:08;22.93;;;16.10;;
9102;SDS011;4587;51.434;6.788;2023-10-09T15:10:36;19.87;;;15.27;;
9102;SDS011;4587;51.434;6.788;2023-10-09T15:13:12;24.37;;;16.23;;
9102;SDS011;4587;51.434;6.788;2023-10-09T15:15:42;23.27;;;17.23;;
9102;SDS011;4587;51.434;6.788;2023-10-09T15:18:08;23.10;;;17.40;;
9102;SDS011;4587;51.434;6.788;2023-10-09T15:20:37;20.47;;;17.10;;
9102;SDS011;4587;51.434;6.788;2023-10-09T15:23:04;23.50;;;17.93;;
9102;SDS011;4587;51.434;6.788;2023-10-09T15:25:31;25.07;;;16.50;;
9102;SDS011;4587;51.434;6.788;2023-10-09T15:27:56;20.97;;;16.97;;
9102;SDS011;4587;51.434;6.788;2023-10-09T15:30:22;23.17;;;16.37;;
9102;SDS011;4587;51.434;6.788;2023-10-09T15:32:48;22.23;;;16.90;;
9102;SDS011;4587;51.434;6.788;2023-10-09T15:35:16;25.13;;;16.97;;
9102;SDS011;4587;51.434;6.788;2023-10-09T15:37:43;21.30;;;16.57;;
9102;SDS011;4587;51.434;6.788;2023-10-09T15:40:11;25.77;;;16.77;;
9102;SDS011;4587;51.434;6.788;2023-10-09T15:42:43;24.50;;;16.33;;